createdAt,value
2022-09-15T00:01:11.130Z,4.15
2022-09-15T00:03:39.950Z,5.47
2022-09-15T00:06:08.038Z,4.78
2022-09-15T00:08:35.850Z,7.68
2022-09-15T00:11:06.889Z,9.63
2022-09-15T00:13:36.219Z,7.22
2022-09-15T00:16:04.705Z,9.23
2022-09-15T00:18:33.871Z,8.45
2022-09-15T00:21:06.363Z,7.85
2022-09-15T00:23:34.003Z,7.15
2022-09-15T00:26:01.693Z,7.53
2022-09-15T00:28:28.752Z,7.25
2022-09-15T00:30:55.959Z,6.15
2022-09-15T00:33:23.341Z,7.40
2022-09-15T00:35:53.112Z,7.57
2022-09-15T00:38:20.686Z,7.28
2022-09-15T00:40:51.844Z,10.68
2022-09-15T00:43:40.807Z,6.25
2022-09-15T00:46:09.209Z,7.28
2022-09-15T00:48:41.496Z,6.85
2022-09-15T00:51:11.265Z,11.63
2022-09-15T00:53:38.898Z,16.17
2022-09-15T00:56:07.912Z,14.52
2022-09-15T01:01:16.109Z,11.38
2022-09-15T01:03:43.613Z,21.90
2022-09-15T01:06:31.063Z,28.38
2022-09-15T01:09:21.173Z,26.60
2022-09-15T01:11:48.523Z,26.98
2022-09-15T01:14:15.727Z,23.80
2022-09-15T01:17:14.076Z,19.13
2022-09-15T01:20:06.646Z,14.82
2022-09-15T01:23:37.464Z,21.98
2022-09-15T01:26:55.166Z,18.02
2022-09-15T01:30:01.659Z,15.53
2022-09-15T01:32:56.117Z,16.05
2022-09-15T01:35:48.887Z,14.82
2022-09-15T01:38:47.016Z,12.32
2022-09-15T01:41:30.494Z,12.18
2022-09-15T01:44:33.683Z,17.70
2022-09-15T01:47:09.379Z,24.73
2022-09-15T01:50:03.102Z,20.05
2022-09-15T01:52:31.338Z,22.83
2022-09-15T01:55:04.945Z,18.40
2022-09-15T01:57:32.724Z,12.52
2022-09-15T02:00:00.248Z,10.00
2022-09-15T02:02:37.591Z,7.22
2022-09-15T02:05:44.457Z,6.82
2022-09-15T02:08:59.882Z,6.18
2022-09-15T02:11:28.310Z,7.28
2022-09-15T02:14:16.706Z,6.88
2022-09-15T02:16:49.368Z,6.68
2022-09-15T02:19:30.613Z,7.40
2022-09-15T02:22:07.384Z,7.90
2022-09-15T02:25:22.049Z,7.95
2022-09-15T02:27:54.332Z,5.50
2022-09-15T02:30:22.293Z,7.00
2022-09-15T02:32:59.183Z,8.35
2022-09-15T02:35:28.371Z,9.32
2022-09-15T02:37:56.681Z,8.70
2022-09-15T02:40:24.092Z,8.57
2022-09-15T02:42:55.294Z,8.43
2022-09-15T02:45:24.545Z,7.57
2022-09-15T02:47:51.682Z,7.15
2022-09-15T02:50:19.955Z,7.32
2022-09-15T02:52:47.091Z,7.70
2022-09-15T02:55:15.249Z,6.32
2022-09-15T02:57:42.397Z,6.23
2022-09-15T03:00:14.167Z,6.10
2022-09-15T03:02:46.113Z,6.85
2022-09-15T03:05:15.515Z,7.72
2022-09-15T03:07:43.111Z,7.28
2022-09-15T03:10:12.172Z,6.25
2022-09-15T03:15:13.914Z,5.82
2022-09-15T03:17:43.369Z,5.47
2022-09-15T03:20:14.221Z,6.60
2022-09-15T03:22:41.977Z,5.63
2022-09-15T03:25:10.634Z,5.65
2022-09-15T03:27:38.382Z,6.38
2022-09-15T03:30:07.537Z,7.97
2022-09-15T03:32:35.421Z,7.75
2022-09-15T03:35:03.962Z,7.30
2022-09-15T03:37:31.351Z,9.70
2022-09-15T03:39:58.840Z,9.30
2022-09-15T03:42:26.346Z,8.98
2022-09-15T03:44:53.779Z,7.57
2022-09-15T03:47:20.914Z,9.13
2022-09-15T03:49:48.023Z,8.50
2022-09-15T03:52:15.053Z,8.23
2022-09-15T03:54:42.123Z,8.30
2022-09-15T03:57:09.225Z,11.95
2022-09-15T03:59:36.391Z,11.43
2022-09-15T04:02:03.590Z,11.95
2022-09-15T04:04:31.435Z,12.95
2022-09-15T04:06:58.530Z,11.40
2022-09-15T04:09:25.755Z,10.48
2022-09-15T04:11:52.877Z,10.18
2022-09-15T04:14:19.949Z,9.55
2022-09-15T04:16:47.091Z,10.13
2022-09-15T04:19:14.314Z,10.80
2022-09-15T04:21:41.653Z,11.35
2022-09-15T04:24:08.749Z,9.98
2022-09-15T04:26:37.018Z,10.00
2022-09-15T04:29:10.958Z,7.82
2022-09-15T04:31:38.316Z,7.20
2022-09-15T04:34:05.467Z,5.63
2022-09-15T04:36:32.623Z,7.18
2022-09-15T04:39:01.114Z,9.68
2022-09-15T04:41:28.447Z,11.10
2022-09-15T04:43:55.608Z,11.60
2022-09-15T04:46:22.811Z,11.77
2022-09-15T04:48:50.369Z,11.88
2022-09-15T04:51:20.397Z,15.80
2022-09-15T04:53:48.153Z,14.30
2022-09-15T04:56:19.426Z,12.85
2022-09-15T04:58:50.637Z,11.38
2022-09-15T05:01:27.082Z,12.52
2022-09-15T05:03:54.705Z,11.45
2022-09-15T05:06:27.453Z,10.95
2022-09-15T05:08:56.921Z,11.48
2022-09-15T05:11:25.157Z,14.02
2022-09-15T05:13:52.757Z,11.35
2022-09-15T05:16:26.034Z,10.10
2022-09-15T05:18:56.201Z,10.80
2022-09-15T05:21:24.124Z,12.05
2022-09-15T05:23:52.271Z,10.80
2022-09-15T05:26:26.084Z,12.07
2022-09-15T05:28:54.385Z,13.93
2022-09-15T05:31:29.953Z,13.10
2022-09-15T05:33:57.268Z,17.77
2022-09-15T05:36:24.838Z,16.80
2022-09-15T05:38:56.381Z,16.40
2022-09-15T05:41:25.165Z,14.25
2022-09-15T05:43:56.279Z,14.45
2022-09-15T05:46:27.038Z,10.15
2022-09-15T05:48:57.604Z,8.68
2022-09-15T05:51:24.721Z,7.38
2022-09-15T05:53:52.038Z,6.93
2022-09-15T05:56:19.736Z,8.52
2022-09-15T05:58:48.163Z,8.07
2022-09-15T06:01:27.599Z,8.43
2022-09-15T06:03:56.145Z,8.57
2022-09-15T06:06:24.812Z,11.38
2022-09-15T06:08:58.681Z,9.48
2022-09-15T06:11:29.661Z,9.60
2022-09-15T06:14:00.091Z,9.55
2022-09-15T06:16:27.517Z,11.82
2022-09-15T06:18:54.788Z,8.80
2022-09-15T06:21:26.130Z,10.93
2022-09-15T06:23:59.497Z,9.57
2022-09-15T06:26:27.495Z,9.48
2022-09-15T06:29:01.154Z,8.27
2022-09-15T06:31:33.248Z,8.00
2022-09-15T06:34:03.332Z,7.35
2022-09-15T06:36:31.526Z,6.32
2022-09-15T06:38:59.204Z,5.65
2022-09-15T06:44:00.005Z,6.75
2022-09-15T06:46:28.220Z,4.65
2022-09-15T06:48:55.887Z,3.88
2022-09-15T06:51:25.298Z,5.75
2022-09-15T06:53:53.842Z,5.03
2022-09-15T06:56:23.097Z,3.83
2022-09-15T06:58:50.484Z,3.58
2022-09-15T07:01:24.635Z,3.03
2022-09-15T07:03:52.247Z,4.28
2022-09-15T07:06:19.862Z,3.72
2022-09-15T07:16:11.955Z,2.63
2022-09-15T07:18:43.043Z,3.15
2022-09-15T07:21:20.008Z,3.42
2022-09-15T07:23:48.582Z,3.53
2022-09-15T07:26:26.544Z,3.75
2022-09-15T07:28:55.785Z,3.40
2022-09-15T07:31:26.173Z,4.35
2022-09-15T07:33:53.435Z,3.47
2022-09-15T07:36:21.124Z,3.63
2022-09-15T07:38:49.842Z,3.63
2022-09-15T07:41:19.363Z,3.40
2022-09-15T07:43:52.526Z,2.78
2022-09-15T07:46:22.375Z,3.45
2022-09-15T07:48:52.523Z,2.50
2022-09-15T07:51:19.821Z,3.15
2022-09-15T07:53:48.094Z,3.03
2022-09-15T07:56:19.394Z,3.03
2022-09-15T07:58:47.627Z,2.85
2022-09-15T08:01:16.706Z,2.88
2022-09-15T08:03:50.033Z,3.35
2022-09-15T08:06:22.775Z,3.15
2022-09-15T08:08:53.965Z,2.65
2022-09-15T08:11:23.535Z,3.45
2022-09-15T08:13:51.789Z,3.10
2022-09-15T08:18:50.705Z,4.47
2022-09-15T08:21:19.854Z,2.97
2022-09-15T08:23:58.599Z,4.45
2022-09-15T08:26:27.405Z,5.40
2022-09-15T08:28:54.552Z,4.60
2022-09-15T08:31:23.378Z,5.13
2022-09-15T08:33:53.271Z,4.47
2022-09-15T08:36:20.807Z,4.97
2022-09-15T08:38:48.302Z,6.82
2022-09-15T08:41:38.922Z,4.53
2022-09-15T08:44:21.976Z,4.20
2022-09-15T08:46:58.502Z,3.45
2022-09-15T08:49:51.976Z,2.97
2022-09-15T08:52:39.510Z,3.83
2022-09-15T08:55:52.330Z,4.32
2022-09-15T08:58:45.693Z,2.67
2022-09-15T09:01:36.897Z,2.08
2022-09-15T09:05:00.949Z,1.80
2022-09-15T09:08:03.216Z,2.03
2022-09-15T09:10:43.948Z,0.85
2022-09-15T09:13:35.827Z,1.67
2022-09-15T09:16:38.205Z,2.05
2022-09-15T09:19:32.298Z,1.65
2022-09-15T09:22:13.363Z,2.25
2022-09-15T09:24:45.875Z,2.00
2022-09-15T09:27:27.131Z,2.65
2022-09-15T09:30:22.461Z,2.33
2022-09-15T09:33:34.020Z,2.42
2022-09-15T09:36:01.772Z,2.28
2022-09-15T09:38:37.176Z,2.05
2022-09-15T09:41:36.905Z,2.58
2022-09-15T09:44:09.990Z,2.20
2022-09-15T09:46:37.199Z,2.25
2022-09-15T09:49:17.057Z,1.23
2022-09-15T09:51:56.563Z,4.20
2022-09-15T09:54:27.984Z,2.65
2022-09-15T09:57:27.505Z,1.77
2022-09-15T09:59:55.159Z,2.25
2022-09-15T10:02:28.883Z,1.02
2022-09-15T10:05:18.234Z,1.45
2022-09-15T10:07:45.804Z,1.80
2022-09-15T10:10:27.941Z,1.98
2022-09-15T10:12:55.962Z,1.55
2022-09-15T10:17:54.594Z,2.58
2022-09-15T10:20:37.884Z,1.73
2022-09-15T10:23:30.557Z,2.33
2022-09-15T10:26:18.572Z,1.60
2022-09-15T10:29:14.735Z,1.67
2022-09-15T10:31:43.897Z,2.28
2022-09-15T10:34:30.864Z,2.22
2022-09-15T10:37:31.762Z,9.53
2022-09-15T10:40:10.284Z,4.70
2022-09-15T10:42:54.718Z,5.25
2022-09-15T10:45:43.100Z,2.65
2022-09-15T10:49:10.083Z,2.08
2022-09-15T10:52:30.985Z,2.50
2022-09-15T10:55:42.465Z,2.60
2022-09-15T10:58:25.680Z,2.58
2022-09-15T11:01:29.616Z,2.90
2022-09-15T11:04:36.540Z,1.98
2022-09-15T11:07:53.557Z,2.95
2022-09-15T11:10:39.857Z,6.15
2022-09-15T11:13:35.535Z,1.73
2022-09-15T11:16:53.099Z,2.92
2022-09-15T11:19:41.668Z,2.47
2022-09-15T11:22:19.183Z,2.60
2022-09-15T11:25:03.218Z,1.88
2022-09-15T11:27:44.240Z,2.03
2022-09-15T11:30:19.872Z,1.55
2022-09-15T11:33:41.859Z,1.58
2022-09-15T11:36:19.187Z,2.30
2022-09-15T11:38:58.678Z,4.30
2022-09-15T11:42:13.189Z,2.28
2022-09-15T11:44:44.584Z,1.27
2022-09-15T11:47:58.326Z,3.20
2022-09-15T11:50:37.357Z,2.15
2022-09-15T11:53:17.686Z,2.00
2022-09-15T11:56:21.138Z,4.40
2022-09-15T11:59:42.529Z,2.83
2022-09-15T12:02:28.129Z,3.45
2022-09-15T12:05:29.320Z,2.25
2022-09-15T12:08:12.194Z,2.55
2022-09-15T12:10:51.655Z,4.10
2022-09-15T12:13:22.078Z,3.60
2022-09-15T12:15:50.802Z,4.20
2022-09-15T12:18:52.064Z,2.70
2022-09-15T12:22:08.939Z,2.13
2022-09-15T12:24:58.936Z,2.83
2022-09-15T12:27:28.743Z,6.88
2022-09-15T12:30:00.523Z,5.50
2022-09-15T12:32:34.316Z,2.50
2022-09-15T12:35:17.025Z,3.08
2022-09-15T12:37:56.914Z,2.90
2022-09-15T12:40:29.931Z,3.42
2022-09-15T12:42:57.369Z,2.65
2022-09-15T12:45:32.601Z,2.72
2022-09-15T12:48:18.362Z,2.70
2022-09-15T12:51:04.714Z,4.40
2022-09-15T12:56:20.943Z,2.05
2022-09-15T12:58:50.245Z,2.40
2022-09-15T13:01:26.029Z,2.70
2022-09-15T13:03:54.552Z,2.50
2022-09-15T13:06:29.185Z,2.88
2022-09-15T13:09:27.513Z,3.38
2022-09-15T13:11:55.983Z,2.85
2022-09-15T13:14:33.718Z,2.58
2022-09-15T13:17:12.946Z,2.60
2022-09-15T13:19:47.129Z,2.33
2022-09-15T13:22:30.452Z,1.95
2022-09-15T13:25:13.122Z,2.83
2022-09-15T13:27:54.348Z,2.35
2022-09-15T13:30:42.487Z,2.97
2022-09-15T13:35:01.173Z,2.25
2022-09-15T13:39:59.944Z,2.60
2022-09-15T13:42:51.471Z,2.78
2022-09-15T13:45:37.196Z,2.88
2022-09-15T13:48:48.557Z,2.75
2022-09-15T13:51:30.650Z,2.65
2022-09-15T13:54:18.538Z,4.18
2022-09-15T13:56:52.521Z,3.50
2022-09-15T13:59:28.905Z,3.28
2022-09-15T14:01:58.251Z,2.53
2022-09-15T14:04:30.573Z,3.38
2022-09-15T14:07:01.401Z,2.70
2022-09-15T14:09:34.155Z,3.38
2022-09-15T14:12:16.238Z,3.58
2022-09-15T14:14:50.146Z,3.30
2022-09-15T14:17:29.159Z,5.43
2022-09-15T14:19:59.293Z,2.88
2022-09-15T14:22:30.183Z,2.63
2022-09-15T14:25:00.000Z,3.05
2022-09-15T14:27:31.554Z,2.53
2022-09-15T14:30:07.100Z,2.42
2022-09-15T14:32:45.244Z,5.07
2022-09-15T14:35:25.522Z,2.92
2022-09-15T14:37:56.821Z,3.95
2022-09-15T14:40:37.388Z,2.45
2022-09-15T14:43:30.145Z,2.75
2022-09-15T14:46:17.875Z,1.55
2022-09-15T14:48:45.166Z,3.22
2022-09-15T14:51:27.950Z,4.10
2022-09-15T14:53:59.318Z,2.72
2022-09-15T14:56:35.715Z,3.13
2022-09-15T14:59:10.026Z,3.13
2022-09-15T15:01:53.763Z,4.03
2022-09-15T15:04:40.758Z,4.22
2022-09-15T15:07:24.292Z,3.60
2022-09-15T15:10:01.577Z,3.22
2022-09-15T15:12:41.226Z,3.65
2022-09-15T15:15:12.458Z,3.40
2022-09-15T15:17:48.697Z,2.35
2022-09-15T15:20:28.168Z,3.20
2022-09-15T15:23:14.900Z,3.63
2022-09-15T15:25:43.100Z,2.50
2022-09-15T15:28:30.042Z,3.15
2022-09-15T15:31:19.963Z,3.47
2022-09-15T15:33:56.001Z,2.17
2022-09-15T15:36:24.787Z,4.07
2022-09-15T15:38:55.721Z,3.50
2022-09-15T15:41:29.894Z,3.78
2022-09-15T15:44:07.267Z,3.22
2022-09-15T15:46:53.267Z,3.03
2022-09-15T15:49:25.281Z,2.95
2022-09-15T15:51:59.802Z,2.85
2022-09-15T15:54:27.453Z,4.65
2022-09-15T15:56:54.701Z,4.85
2022-09-15T15:59:21.985Z,3.53
2022-09-15T16:01:54.718Z,4.00
2022-09-15T16:04:21.859Z,4.00
2022-09-15T16:06:50.274Z,3.17
2022-09-15T16:09:20.085Z,3.05
2022-09-15T16:11:47.304Z,3.78
2022-09-15T16:14:14.544Z,3.40
2022-09-15T16:16:41.779Z,2.95
2022-09-15T16:19:09.101Z,2.23
2022-09-15T16:21:41.948Z,3.05
2022-09-15T16:24:14.730Z,4.78
2022-09-15T16:26:42.849Z,3.78
2022-09-15T16:29:10.938Z,3.20
2022-09-15T16:31:38.909Z,3.78
2022-09-15T16:34:06.082Z,5.03
2022-09-15T16:36:35.680Z,3.85
2022-09-15T16:39:03.162Z,3.75
2022-09-15T16:41:30.274Z,3.45
2022-09-15T16:43:57.473Z,3.83
2022-09-15T16:46:24.837Z,3.20
2022-09-15T16:48:51.986Z,5.37
2022-09-15T16:51:29.936Z,4.72
2022-09-15T16:53:58.808Z,2.78
2022-09-15T16:56:26.403Z,2.92
2022-09-15T16:58:59.010Z,2.25
2022-09-15T17:01:27.514Z,3.00
2022-09-15T17:03:55.196Z,3.45
2022-09-15T17:06:22.514Z,2.72
2022-09-15T17:08:49.862Z,19.13
2022-09-15T17:11:21.553Z,5.28
2022-09-15T17:13:48.780Z,5.13
2022-09-15T17:16:19.043Z,3.70
2022-09-15T17:18:46.580Z,8.63
2022-09-15T17:21:17.395Z,6.47
2022-09-15T17:23:48.018Z,5.28
2022-09-15T17:26:21.072Z,4.32
2022-09-15T17:28:48.831Z,5.68
2022-09-15T17:31:19.407Z,5.45
2022-09-15T17:33:48.319Z,5.80
2022-09-15T17:36:16.125Z,6.07
2022-09-15T17:38:48.142Z,7.70
2022-09-15T17:41:21.735Z,5.93
2022-09-15T17:43:48.999Z,4.25
2022-09-15T17:46:16.257Z,3.72
2022-09-15T17:48:43.434Z,7.20
2022-09-15T17:51:19.120Z,5.25
2022-09-15T17:53:47.198Z,8.20
2022-09-15T17:56:14.605Z,6.30
2022-09-15T17:58:42.455Z,5.82
2022-09-15T18:01:13.269Z,9.32
2022-09-15T18:03:43.747Z,17.23
2022-09-15T18:06:11.287Z,12.68
2022-09-15T18:08:38.502Z,10.93
2022-09-15T18:11:06.881Z,10.88
2022-09-15T18:16:07.084Z,11.95
2022-09-15T18:18:34.393Z,9.85
2022-09-15T18:21:06.502Z,9.40
2022-09-15T18:23:33.660Z,7.22
2022-09-15T18:26:01.537Z,8.60
2022-09-15T18:28:28.631Z,9.40
2022-09-15T18:30:55.956Z,8.63
2022-09-15T18:33:25.770Z,6.83
2022-09-15T18:35:56.119Z,6.47
2022-09-15T18:38:24.013Z,5.53
2022-09-15T18:40:56.084Z,5.13
2022-09-15T18:43:26.646Z,5.57
2022-09-15T18:46:00.721Z,6.70
2022-09-15T18:48:28.664Z,6.50
2022-09-15T18:50:56.342Z,6.95
2022-09-15T18:53:23.910Z,4.83
2022-09-15T18:55:51.173Z,5.40
2022-09-15T18:58:22.077Z,5.03
2022-09-15T19:00:49.540Z,5.05
2022-09-15T19:03:16.875Z,9.63
2022-09-15T19:05:45.161Z,6.25
2022-09-15T19:08:12.461Z,7.38
2022-09-15T19:10:43.174Z,6.20
2022-09-15T19:13:11.554Z,5.93
2022-09-15T19:15:39.915Z,5.47
2022-09-15T19:18:07.140Z,4.78
2022-09-15T19:20:34.273Z,4.43
2022-09-15T19:23:01.405Z,5.45
2022-09-15T19:25:28.649Z,6.40
2022-09-15T19:27:55.960Z,5.38
2022-09-15T19:30:23.343Z,3.90
2022-09-15T19:32:52.038Z,3.25
2022-09-15T19:35:19.592Z,3.92
2022-09-15T19:37:46.700Z,4.47
2022-09-15T19:40:15.421Z,3.78
2022-09-15T19:42:44.363Z,3.38
2022-09-15T19:45:13.074Z,3.65
2022-09-15T19:47:40.815Z,5.95
2022-09-15T19:50:11.036Z,3.85
2022-09-15T19:52:38.353Z,4.30
2022-09-15T19:55:08.827Z,4.43
2022-09-15T19:57:41.129Z,6.80
2022-09-15T20:00:11.905Z,10.95
2022-09-15T20:02:39.275Z,13.85
2022-09-15T20:05:07.482Z,16.58
2022-09-15T20:07:34.787Z,16.50
2022-09-15T20:10:02.031Z,15.55
2022-09-15T20:12:29.456Z,15.35
2022-09-15T20:14:56.772Z,13.35
2022-09-15T20:17:24.025Z,12.88
2022-09-15T20:19:51.198Z,10.75
2022-09-15T20:22:18.455Z,6.88
2022-09-15T20:24:45.634Z,6.18
2022-09-15T20:27:13.465Z,8.88
2022-09-15T20:29:40.922Z,8.77
2022-09-15T20:32:08.166Z,5.07
2022-09-15T20:34:35.271Z,5.15
2022-09-15T20:37:02.594Z,6.57
2022-09-15T20:39:29.781Z,9.98
2022-09-15T20:41:57.436Z,8.70
2022-09-15T20:44:24.784Z,7.60
2022-09-15T20:46:52.180Z,4.57
2022-09-15T20:49:19.474Z,4.90
2022-09-15T20:51:46.820Z,6.28
2022-09-15T20:54:14.113Z,5.28
2022-09-15T20:56:41.211Z,3.58
2022-09-15T20:59:12.996Z,3.83
2022-09-15T21:01:40.273Z,4.60
2022-09-15T21:04:10.186Z,4.93
2022-09-15T21:06:37.844Z,3.67
2022-09-15T21:09:05.647Z,4.20
2022-09-15T21:11:33.317Z,2.90
2022-09-15T21:14:01.064Z,3.58
2022-09-15T21:16:28.941Z,3.83
2022-09-15T21:18:57.880Z,3.45
2022-09-15T21:21:30.767Z,4.60
2022-09-15T21:24:04.515Z,3.25
2022-09-15T21:26:59.593Z,4.00
2022-09-15T21:29:27.881Z,2.63
2022-09-15T21:31:55.426Z,3.47
2022-09-15T21:34:23.312Z,2.75
2022-09-15T21:36:52.785Z,2.77
2022-09-15T21:39:20.751Z,3.60
2022-09-15T21:41:47.982Z,2.47
2022-09-15T21:44:15.364Z,2.42
2022-09-15T21:46:44.253Z,2.10
2022-09-15T21:49:11.368Z,3.20
2022-09-15T21:51:38.494Z,2.65
2022-09-15T21:54:05.562Z,3.33
2022-09-15T21:56:32.824Z,2.40
2022-09-15T21:59:02.935Z,1.88
2022-09-15T22:01:32.194Z,2.38
2022-09-15T22:04:03.829Z,2.20
2022-09-15T22:06:36.083Z,2.58
2022-09-15T22:09:07.982Z,2.35
2022-09-15T22:11:36.002Z,1.77
2022-09-15T22:14:07.414Z,1.98
2022-09-15T22:16:37.431Z,2.08
2022-09-15T22:19:06.443Z,2.97
2022-09-15T22:21:36.198Z,2.70
2022-09-15T22:24:06.248Z,2.25
2022-09-15T22:26:36.285Z,2.47
2022-09-15T22:29:05.162Z,2.70
2022-09-15T22:31:34.636Z,2.28
2022-09-15T22:34:02.166Z,3.25
2022-09-15T22:36:31.183Z,2.83
2022-09-15T22:39:03.594Z,3.28
2022-09-15T22:41:37.827Z,3.28
2022-09-15T22:44:06.596Z,7.72
2022-09-15T22:49:01.657Z,7.30
2022-09-15T22:51:28.988Z,7.00
2022-09-15T22:53:56.367Z,7.03
2022-09-15T22:56:25.374Z,8.57
2022-09-15T22:58:53.234Z,9.43
2022-09-15T23:01:27.368Z,11.40
2022-09-15T23:03:58.457Z,10.90
2022-09-15T23:06:30.072Z,9.13
2022-09-15T23:08:59.971Z,8.27
2022-09-15T23:11:29.338Z,8.13
2022-09-15T23:13:56.703Z,8.48
2022-09-15T23:16:25.550Z,7.32
2022-09-15T23:18:53.993Z,7.32
2022-09-15T23:21:22.163Z,7.80
2022-09-15T23:23:49.714Z,6.38
2022-09-15T23:26:21.372Z,6.22
2022-09-15T23:28:48.963Z,6.20
2022-09-15T23:31:17.056Z,6.88
2022-09-15T23:33:44.564Z,6.63
2022-09-15T23:36:15.580Z,6.40
2022-09-15T23:38:44.523Z,5.35
2022-09-15T23:41:14.324Z,5.32
2022-09-15T23:43:41.512Z,5.50
2022-09-15T23:46:09.230Z,5.20
2022-09-15T23:48:37.096Z,4.25
2022-09-15T23:51:04.736Z,5.43
2022-09-15T23:53:31.982Z,4.07
2022-09-15T23:55:59.134Z,3.65
2022-09-15T23:58:26.280Z,4.18
